createdAt,value
2018-07-06T00:00:53.949Z,5.80
2018-07-06T00:01:54.193Z,6.10
2018-07-06T00:02:54.437Z,6.00
2018-07-06T00:03:54.681Z,6.30
2018-07-06T00:04:54.928Z,5.90
2018-07-06T00:05:55.174Z,5.60
2018-07-06T00:06:55.419Z,5.70
2018-07-06T00:07:55.663Z,5.60
2018-07-06T00:08:55.907Z,5.80
2018-07-06T00:09:56.151Z,6.10
2018-07-06T00:10:56.414Z,6.00
2018-07-06T00:11:56.641Z,5.60
2018-07-06T00:12:56.886Z,6.00
2018-07-06T00:13:57.132Z,5.80
2018-07-06T00:14:57.376Z,5.60
2018-07-06T00:15:57.621Z,5.90
2018-07-06T00:16:57.864Z,5.80
2018-07-06T00:17:58.112Z,5.90
2018-07-06T00:18:58.356Z,6.10
2018-07-06T00:19:58.601Z,5.70
2018-07-06T00:20:58.846Z,5.90
2018-07-06T00:21:59.090Z,6.00
2018-07-06T00:22:59.337Z,5.40
2018-07-06T00:23:59.579Z,5.50
2018-07-06T00:24:59.822Z,5.60
2018-07-06T00:26:00.069Z,5.40
2018-07-06T00:27:00.314Z,5.30
2018-07-06T00:28:00.556Z,5.70
2018-07-06T00:29:00.803Z,5.50
2018-07-06T00:30:01.048Z,5.10
2018-07-06T00:31:01.294Z,5.40
2018-07-06T00:32:01.538Z,5.30
2018-07-06T00:33:01.782Z,5.20
2018-07-06T00:34:02.028Z,5.40
2018-07-06T00:35:02.271Z,5.20
2018-07-06T00:36:02.516Z,5.30
2018-07-06T00:37:02.759Z,5.70
2018-07-06T00:38:03.004Z,5.40
2018-07-06T00:39:03.250Z,4.90
2018-07-06T00:40:03.494Z,5.90
2018-07-06T00:41:03.737Z,5.40
2018-07-06T00:42:03.983Z,5.40
2018-07-06T00:43:04.229Z,5.10
2018-07-06T00:44:04.473Z,5.20
2018-07-06T00:45:04.716Z,4.60
2018-07-06T00:46:04.961Z,5.30
2018-07-06T00:47:05.206Z,5.40
2018-07-06T00:48:05.452Z,5.30
2018-07-06T00:49:05.695Z,5.00
2018-07-06T00:50:05.940Z,4.90
2018-07-06T00:51:06.185Z,5.30
2018-07-06T00:52:06.431Z,5.10
2018-07-06T00:53:06.676Z,4.80
2018-07-06T00:54:06.919Z,5.10
2018-07-06T00:55:07.165Z,4.80
2018-07-06T00:56:07.409Z,5.40
2018-07-06T00:57:07.658Z,5.00
2018-07-06T00:58:07.899Z,5.20
2018-07-06T00:59:08.144Z,4.90
2018-07-06T01:00:08.388Z,5.30
2018-07-06T01:01:08.632Z,5.10
2018-07-06T01:02:08.878Z,4.70
2018-07-06T01:03:09.123Z,4.70
2018-07-06T01:04:09.366Z,5.10
2018-07-06T01:05:09.611Z,5.00
2018-07-06T01:06:09.856Z,4.60
2018-07-06T01:07:10.100Z,4.60
2018-07-06T01:08:10.344Z,5.00
2018-07-06T01:09:10.589Z,4.10
2018-07-06T01:10:10.864Z,4.80
2018-07-06T01:11:11.077Z,5.10
2018-07-06T01:12:11.321Z,5.00
2018-07-06T01:13:11.566Z,5.30
2018-07-06T01:14:11.811Z,4.90
2018-07-06T01:15:12.056Z,4.70
2018-07-06T01:16:12.307Z,4.80
2018-07-06T01:17:12.544Z,5.00
2018-07-06T01:18:12.790Z,4.50
2018-07-06T01:19:13.034Z,4.90
2018-07-06T01:20:13.281Z,4.80
2018-07-06T01:21:13.524Z,5.00
2018-07-06T01:22:13.767Z,4.90
2018-07-06T01:23:14.012Z,5.20
2018-07-06T01:24:14.255Z,5.00
2018-07-06T01:25:14.499Z,4.70
2018-07-06T01:26:14.746Z,4.80
2018-07-06T01:27:14.990Z,5.30
2018-07-06T01:28:15.235Z,5.20
2018-07-06T01:29:15.478Z,5.40
2018-07-06T01:30:15.724Z,4.80
2018-07-06T01:31:15.969Z,5.40
2018-07-06T01:32:16.215Z,4.70
2018-07-06T01:33:16.461Z,5.00
2018-07-06T01:34:16.704Z,5.20
2018-07-06T01:35:16.951Z,5.60
2018-07-06T01:36:17.192Z,5.30
2018-07-06T01:37:17.440Z,5.60
2018-07-06T01:38:17.680Z,4.70
2018-07-06T01:39:17.925Z,5.50
2018-07-06T01:40:18.175Z,5.60
2018-07-06T01:41:18.412Z,5.50
2018-07-06T01:42:18.668Z,5.50
2018-07-06T01:43:18.913Z,5.60
2018-07-06T01:44:19.155Z,5.40
2018-07-06T01:45:19.399Z,4.80
2018-07-06T01:46:19.644Z,5.00
2018-07-06T01:47:19.890Z,4.80
2018-07-06T01:48:20.133Z,5.10
2018-07-06T01:49:20.377Z,5.30
2018-07-06T01:50:20.622Z,5.10
2018-07-06T01:51:20.868Z,5.50
2018-07-06T01:52:21.114Z,4.80
2018-07-06T01:53:21.357Z,5.10
2018-07-06T01:54:21.601Z,5.10
2018-07-06T01:55:21.845Z,4.90
2018-07-06T01:56:22.091Z,4.70
2018-07-06T01:57:22.335Z,5.30
2018-07-06T01:58:22.578Z,5.50
2018-07-06T01:59:22.824Z,5.80
2018-07-06T02:00:23.068Z,4.80
2018-07-06T02:01:23.311Z,5.40
2018-07-06T02:02:23.557Z,5.00
2018-07-06T02:03:23.799Z,5.50
2018-07-06T02:04:24.046Z,5.40
2018-07-06T02:05:24.293Z,4.90
2018-07-06T02:06:24.533Z,5.20
2018-07-06T02:07:24.777Z,5.20
2018-07-06T02:08:25.024Z,5.70
2018-07-06T02:09:25.266Z,5.40
2018-07-06T02:10:25.512Z,5.40
2018-07-06T02:11:25.757Z,5.70
2018-07-06T02:12:26.004Z,5.60
2018-07-06T02:13:26.253Z,6.10
2018-07-06T02:14:26.497Z,5.80
2018-07-06T02:15:26.740Z,6.00
2018-07-06T02:16:26.987Z,6.00
2018-07-06T02:17:27.231Z,6.20
2018-07-06T02:18:27.475Z,5.90
2018-07-06T02:19:27.723Z,6.40
2018-07-06T02:20:27.971Z,6.70
2018-07-06T02:21:28.216Z,6.40
2018-07-06T02:22:28.462Z,6.40
2018-07-06T02:23:28.707Z,6.50
2018-07-06T02:24:28.954Z,6.20
2018-07-06T02:25:29.200Z,6.80
2018-07-06T02:26:29.442Z,7.00
2018-07-06T02:27:29.689Z,6.70
2018-07-06T02:28:29.933Z,7.50
2018-07-06T02:29:30.178Z,7.60
2018-07-06T02:30:30.424Z,7.70
2018-07-06T02:31:30.672Z,7.20
2018-07-06T02:32:30.916Z,7.80
2018-07-06T02:33:31.162Z,8.50
2018-07-06T02:34:31.408Z,8.10
2018-07-06T02:35:31.655Z,7.50
2018-07-06T02:36:31.900Z,7.90
2018-07-06T02:37:32.145Z,8.50
2018-07-06T02:38:32.392Z,8.20
2018-07-06T02:39:32.639Z,8.70
2018-07-06T02:40:32.882Z,9.00
2018-07-06T02:41:33.127Z,9.00
2018-07-06T02:42:33.370Z,9.30
2018-07-06T02:43:33.618Z,8.90
2018-07-06T02:44:33.864Z,8.90
2018-07-06T02:45:34.111Z,9.70
2018-07-06T02:46:34.356Z,9.30
2018-07-06T02:47:34.597Z,9.50
2018-07-06T02:48:34.843Z,8.90
2018-07-06T02:49:35.089Z,9.90
2018-07-06T02:50:35.333Z,9.60
2018-07-06T02:51:35.585Z,9.90
2018-07-06T02:52:35.824Z,10.20
2018-07-06T02:53:36.067Z,9.20
2018-07-06T02:54:36.312Z,9.30
2018-07-06T02:55:36.557Z,8.20
2018-07-06T02:56:36.822Z,8.00
2018-07-06T02:57:37.050Z,8.20
2018-07-06T02:58:37.297Z,8.50
2018-07-06T02:59:37.539Z,9.80
2018-07-06T03:00:37.785Z,9.80
2018-07-06T03:01:38.029Z,10.10
2018-07-06T03:02:38.305Z,10.00
2018-07-06T03:03:38.520Z,10.60
2018-07-06T03:04:38.767Z,11.30
2018-07-06T03:05:39.011Z,12.00
2018-07-06T03:06:39.257Z,12.50
2018-07-06T03:07:39.503Z,12.90
2018-07-06T03:08:39.749Z,12.40
2018-07-06T03:09:39.998Z,12.50
2018-07-06T03:10:40.239Z,12.10
2018-07-06T03:11:40.482Z,12.80
2018-07-06T03:12:40.729Z,12.80
2018-07-06T03:13:40.972Z,12.90
2018-07-06T03:14:41.217Z,13.40
2018-07-06T03:15:41.463Z,12.10
2018-07-06T03:16:41.708Z,11.80
2018-07-06T03:17:41.950Z,11.90
2018-07-06T03:18:42.194Z,11.40
2018-07-06T03:19:42.438Z,12.00
2018-07-06T03:20:42.683Z,11.70
2018-07-06T03:21:42.928Z,11.80
2018-07-06T03:22:43.170Z,11.20
2018-07-06T03:23:43.417Z,11.60
2018-07-06T03:24:43.660Z,13.00
2018-07-06T03:25:43.906Z,12.00
2018-07-06T03:26:44.151Z,11.90
2018-07-06T03:27:44.458Z,13.70
2018-07-06T03:28:44.871Z,13.60
2018-07-06T03:29:44.887Z,13.30
2018-07-06T03:30:45.133Z,13.40
2018-07-06T03:31:45.379Z,12.70
2018-07-06T03:32:45.624Z,12.60
2018-07-06T03:33:45.870Z,12.20
2018-07-06T03:34:46.114Z,11.80
2018-07-06T03:35:46.359Z,10.90
2018-07-06T03:36:46.605Z,10.90
2018-07-06T03:37:46.848Z,11.10
2018-07-06T03:38:47.093Z,9.60
2018-07-06T03:39:47.339Z,9.40
2018-07-06T03:40:47.582Z,9.30
2018-07-06T03:41:47.827Z,9.20
2018-07-06T03:42:48.071Z,8.40
2018-07-06T03:43:48.316Z,7.60
2018-07-06T03:44:48.560Z,8.40
2018-07-06T03:45:48.802Z,8.70
2018-07-06T03:46:49.050Z,8.40
2018-07-06T03:47:49.295Z,8.40
2018-07-06T03:48:49.542Z,8.30
2018-07-06T03:49:49.782Z,7.90
2018-07-06T03:50:50.026Z,8.50
2018-07-06T03:51:50.270Z,8.60
2018-07-06T03:52:50.513Z,8.60
2018-07-06T03:53:50.761Z,9.00
2018-07-06T03:54:51.021Z,8.40
2018-07-06T03:55:51.248Z,8.20
2018-07-06T03:56:51.497Z,7.70
2018-07-06T03:57:51.738Z,7.50
2018-07-06T03:58:51.979Z,8.40
2018-07-06T03:59:52.224Z,7.80
2018-07-06T04:00:52.470Z,7.90
2018-07-06T04:01:52.714Z,7.50
2018-07-06T04:02:52.959Z,9.30
2018-07-06T04:03:53.203Z,7.80
2018-07-06T04:04:53.448Z,7.30
2018-07-06T04:05:53.693Z,7.80
2018-07-06T04:06:53.939Z,7.70
2018-07-06T04:07:54.185Z,8.00
2018-07-06T04:08:54.429Z,7.80
2018-07-06T04:09:54.676Z,7.80
2018-07-06T04:10:54.920Z,8.20
2018-07-06T04:11:55.166Z,8.20
2018-07-06T04:12:55.412Z,8.20
2018-07-06T04:13:55.658Z,7.40
2018-07-06T04:14:55.902Z,8.40
2018-07-06T04:15:56.200Z,8.40
2018-07-06T04:16:56.392Z,7.90
2018-07-06T04:17:56.638Z,8.20
2018-07-06T04:18:56.884Z,9.20
2018-07-06T04:19:57.130Z,8.90
2018-07-06T04:20:57.376Z,8.60
2018-07-06T04:21:57.625Z,9.10
2018-07-06T04:22:57.869Z,8.50
2018-07-06T04:23:58.117Z,8.60
2018-07-06T04:24:58.364Z,8.20
2018-07-06T04:25:58.612Z,8.20
2018-07-06T04:26:58.855Z,8.90
2018-07-06T04:27:59.100Z,8.60
2018-07-06T04:28:59.344Z,8.10
2018-07-06T04:29:59.593Z,8.00
2018-07-06T04:30:59.840Z,8.30
2018-07-06T04:32:00.087Z,8.20
2018-07-06T04:33:00.334Z,8.00
2018-07-06T04:34:00.585Z,7.10
2018-07-06T04:35:00.829Z,7.50
2018-07-06T04:36:01.078Z,7.50
2018-07-06T04:37:01.324Z,7.20
2018-07-06T04:38:01.571Z,6.90
2018-07-06T04:39:01.819Z,7.80
2018-07-06T04:40:02.064Z,6.80
2018-07-06T04:41:02.310Z,7.20
2018-07-06T04:42:02.557Z,7.10
2018-07-06T04:43:02.803Z,7.00
2018-07-06T04:44:03.051Z,7.40
2018-07-06T04:45:03.297Z,7.60
2018-07-06T04:46:03.542Z,7.10
2018-07-06T04:47:03.789Z,6.90
2018-07-06T04:48:04.036Z,7.40
2018-07-06T04:49:04.280Z,7.30
2018-07-06T04:50:04.527Z,6.60
2018-07-06T04:51:04.810Z,7.20
2018-07-06T04:52:05.020Z,6.90
2018-07-06T04:53:05.266Z,7.00
2018-07-06T04:54:05.513Z,7.00
2018-07-06T04:55:05.760Z,6.50
2018-07-06T04:56:06.006Z,6.40
2018-07-06T04:57:06.251Z,6.80
2018-07-06T04:58:06.497Z,6.70
2018-07-06T04:59:06.745Z,6.60
2018-07-06T05:00:06.992Z,6.90
2018-07-06T05:01:07.239Z,6.10
2018-07-06T05:02:07.487Z,6.10
2018-07-06T05:03:07.735Z,6.10
2018-07-06T05:04:07.983Z,6.60
2018-07-06T05:05:08.224Z,6.30
2018-07-06T05:06:08.473Z,6.40
2018-07-06T05:07:08.724Z,6.00
2018-07-06T05:08:08.966Z,6.40
2018-07-06T05:09:09.213Z,6.50
2018-07-06T05:10:09.475Z,6.30
2018-07-06T05:11:09.706Z,6.60
2018-07-06T05:12:09.947Z,6.00
2018-07-06T05:13:10.191Z,6.10
2018-07-06T05:14:10.438Z,6.20
2018-07-06T05:15:10.680Z,6.00
2018-07-06T05:16:10.926Z,6.10
2018-07-06T05:17:11.169Z,6.00
2018-07-06T05:18:11.415Z,5.90
2018-07-06T05:19:11.662Z,5.90
2018-07-06T05:20:11.906Z,5.80
2018-07-06T05:21:12.149Z,5.50
2018-07-06T05:22:12.395Z,5.80
2018-07-06T05:23:12.639Z,5.60
2018-07-06T05:24:12.882Z,5.80
2018-07-06T05:25:13.125Z,5.50
2018-07-06T05:26:13.371Z,5.40
2018-07-06T05:27:13.615Z,5.50
2018-07-06T05:28:13.861Z,5.30
2018-07-06T05:29:14.107Z,5.60
2018-07-06T05:30:14.353Z,5.40
2018-07-06T05:31:14.597Z,5.70
2018-07-06T05:32:14.843Z,5.50
2018-07-06T05:33:15.087Z,5.80
2018-07-06T05:34:15.330Z,5.60
2018-07-06T05:35:15.573Z,5.30
2018-07-06T05:36:15.820Z,6.00
2018-07-06T05:37:16.063Z,5.10
2018-07-06T05:38:16.306Z,5.40
2018-07-06T05:39:16.551Z,5.50
2018-07-06T05:40:16.793Z,5.30
2018-07-06T05:41:17.038Z,5.10
2018-07-06T05:42:17.281Z,5.40
2018-07-06T05:43:17.525Z,5.40
2018-07-06T05:44:17.773Z,4.70
2018-07-06T05:45:18.013Z,5.30
2018-07-06T05:46:18.293Z,5.00
2018-07-06T05:47:18.500Z,5.20
2018-07-06T05:48:18.744Z,4.80
2018-07-06T05:49:18.989Z,4.50
2018-07-06T05:50:19.233Z,4.90
2018-07-06T05:51:19.475Z,5.00
2018-07-06T05:52:19.719Z,4.60
2018-07-06T05:53:19.963Z,4.70
2018-07-06T05:54:20.206Z,5.60
2018-07-06T05:55:20.452Z,5.10
2018-07-06T05:56:20.696Z,5.50
2018-07-06T05:57:20.940Z,5.30
2018-07-06T05:58:21.184Z,5.90
2018-07-06T05:59:21.510Z,5.50
2018-07-06T06:00:21.673Z,5.90
2018-07-06T06:01:21.917Z,5.90
2018-07-06T06:02:22.162Z,5.90
2018-07-06T06:03:22.405Z,5.40
2018-07-06T06:04:22.649Z,5.90
2018-07-06T06:05:22.893Z,5.50
2018-07-06T06:06:23.136Z,6.00
2018-07-06T06:07:23.381Z,5.80
2018-07-06T06:08:23.626Z,5.80
2018-07-06T06:09:23.873Z,6.00
2018-07-06T06:10:24.117Z,6.30
2018-07-06T06:11:24.361Z,6.10
2018-07-06T06:12:24.607Z,6.20
2018-07-06T06:13:24.851Z,5.60
2018-07-06T06:14:25.096Z,6.20
2018-07-06T06:15:25.339Z,5.90
2018-07-06T06:16:25.584Z,6.00
2018-07-06T06:17:25.828Z,5.80
2018-07-06T06:18:26.120Z,5.60
2018-07-06T06:19:26.313Z,6.00
2018-07-06T06:20:26.558Z,5.50
2018-07-06T06:21:26.802Z,5.80
2018-07-06T06:22:27.047Z,6.10
2018-07-06T06:23:27.290Z,5.90
2018-07-06T06:24:27.535Z,5.30
2018-07-06T06:25:27.777Z,5.70
2018-07-06T06:26:28.023Z,5.60
2018-07-06T06:27:28.266Z,5.90
2018-07-06T06:28:28.511Z,5.40
2018-07-06T06:29:28.756Z,5.70
2018-07-06T06:30:29.001Z,5.70
2018-07-06T06:31:29.242Z,5.50
2018-07-06T06:32:29.486Z,4.90
2018-07-06T06:33:29.860Z,4.90
2018-07-06T06:34:29.975Z,4.90
2018-07-06T06:35:30.221Z,5.00
2018-07-06T06:36:30.459Z,4.60
2018-07-06T06:37:30.704Z,4.70
2018-07-06T06:38:30.949Z,4.80
2018-07-06T06:39:31.258Z,4.80
2018-07-06T06:40:31.440Z,4.90
2018-07-06T06:41:31.683Z,4.50
2018-07-06T06:42:31.929Z,4.20
2018-07-06T06:43:32.172Z,4.60
2018-07-06T06:44:32.419Z,4.80
2018-07-06T06:45:32.661Z,4.30
2018-07-06T06:46:32.969Z,4.50
2018-07-06T06:47:33.146Z,4.60
2018-07-06T06:48:33.391Z,4.90
2018-07-06T06:49:33.635Z,4.40
2018-07-06T06:50:33.878Z,4.60
2018-07-06T06:51:34.124Z,4.80
2018-07-06T06:52:34.373Z,4.20
2018-07-06T06:53:34.614Z,4.40
2018-07-06T06:54:34.860Z,5.30
2018-07-06T06:55:35.099Z,4.60
2018-07-06T06:56:35.343Z,4.40
2018-07-06T06:57:35.586Z,4.60
2018-07-06T06:58:35.834Z,5.00
2018-07-06T06:59:36.078Z,4.60
2018-07-06T07:00:36.319Z,4.30
2018-07-06T07:01:36.564Z,5.70
2018-07-06T07:02:36.810Z,5.00
2018-07-06T07:03:37.053Z,4.10
2018-07-06T07:04:37.300Z,4.90
2018-07-06T07:05:37.545Z,5.00
2018-07-06T07:06:37.789Z,5.00
2018-07-06T07:07:38.204Z,5.10
2018-07-06T07:08:38.281Z,4.80
2018-07-06T07:09:38.530Z,5.20
2018-07-06T07:10:38.773Z,5.20
2018-07-06T07:11:39.018Z,5.00
2018-07-06T07:12:39.266Z,5.00
2018-07-06T07:13:39.522Z,4.60
2018-07-06T07:14:39.754Z,4.30
2018-07-06T07:15:40.000Z,4.40
2018-07-06T07:16:40.248Z,4.80
2018-07-06T07:17:40.493Z,4.80
2018-07-06T07:18:40.739Z,5.10
2018-07-06T07:19:40.984Z,5.30
2018-07-06T07:20:41.229Z,5.40
2018-07-06T07:21:41.475Z,5.00
2018-07-06T07:22:41.720Z,4.70
2018-07-06T07:23:41.983Z,4.80
2018-07-06T07:24:42.209Z,4.10
2018-07-06T07:25:42.454Z,4.30
2018-07-06T07:26:42.700Z,4.30
2018-07-06T07:27:42.970Z,4.30
2018-07-06T07:28:43.194Z,4.10
2018-07-06T07:29:43.440Z,4.10
2018-07-06T07:30:43.682Z,4.70
2018-07-06T07:31:43.927Z,4.50
2018-07-06T07:32:44.173Z,3.60
2018-07-06T07:33:44.419Z,5.00
2018-07-06T07:34:44.667Z,4.80
2018-07-06T07:35:44.917Z,5.00
2018-07-06T07:36:45.162Z,5.00
2018-07-06T07:37:45.406Z,5.20
2018-07-06T07:38:45.650Z,4.20
2018-07-06T07:39:45.901Z,4.60
2018-07-06T07:40:46.146Z,4.30
2018-07-06T07:41:46.392Z,4.30
2018-07-06T07:42:46.640Z,4.60
2018-07-06T07:43:46.889Z,4.30
2018-07-06T07:44:47.136Z,4.90
2018-07-06T07:45:47.384Z,4.30
2018-07-06T07:46:47.630Z,4.70
2018-07-06T07:47:47.879Z,4.70
2018-07-06T07:48:48.128Z,4.60
2018-07-06T07:49:48.377Z,4.30
2018-07-06T07:50:48.626Z,4.20
2018-07-06T07:51:48.875Z,4.20
2018-07-06T07:52:49.125Z,4.30
2018-07-06T07:53:49.372Z,4.30
2018-07-06T07:54:49.620Z,4.20
2018-07-06T07:55:49.869Z,5.00
2018-07-06T07:56:50.118Z,4.90
2018-07-06T07:57:50.366Z,4.20
2018-07-06T07:58:50.616Z,4.70
2018-07-06T07:59:50.861Z,4.80
2018-07-06T08:00:51.235Z,5.20
2018-07-06T08:01:51.362Z,5.00
2018-07-06T08:02:51.609Z,5.30
2018-07-06T08:03:51.856Z,4.60
2018-07-06T08:04:52.105Z,4.60
2018-07-06T08:05:52.351Z,4.50
2018-07-06T08:06:52.604Z,4.20
2018-07-06T08:07:52.852Z,4.90
2018-07-06T08:08:53.100Z,4.90
2018-07-06T08:09:53.350Z,4.80
2018-07-06T08:10:53.599Z,4.80
2018-07-06T08:11:53.925Z,4.40
2018-07-06T08:12:54.098Z,4.20
2018-07-06T08:13:54.344Z,4.60
2018-07-06T08:14:54.596Z,4.20
2018-07-06T08:15:54.844Z,4.50
2018-07-06T08:16:55.092Z,4.10
2018-07-06T08:17:55.340Z,4.10
2018-07-06T08:18:55.591Z,4.40
2018-07-06T08:19:55.844Z,4.60
2018-07-06T08:20:56.090Z,4.60
2018-07-06T08:21:56.337Z,4.70
2018-07-06T08:22:56.588Z,4.60
2018-07-06T08:23:56.836Z,4.60
2018-07-06T08:24:57.085Z,4.90
2018-07-06T08:25:57.337Z,5.00
2018-07-06T08:26:57.591Z,5.00
2018-07-06T08:27:57.841Z,4.50
2018-07-06T08:28:58.093Z,4.90
2018-07-06T08:29:58.341Z,4.70
2018-07-06T08:30:58.591Z,5.10
2018-07-06T08:31:58.842Z,5.30
2018-07-06T08:32:59.091Z,5.10
2018-07-06T08:33:59.342Z,5.20
2018-07-06T08:34:59.594Z,4.60
2018-07-06T08:35:59.846Z,5.50
2018-07-06T08:37:00.097Z,5.50
2018-07-06T08:38:00.353Z,5.30
2018-07-06T08:39:00.601Z,4.70
2018-07-06T08:40:00.854Z,4.90
2018-07-06T08:41:01.108Z,4.90
2018-07-06T08:42:01.359Z,4.90
2018-07-06T08:43:01.608Z,5.00
2018-07-06T08:44:01.863Z,4.80
2018-07-06T08:45:02.194Z,4.50
2018-07-06T08:46:02.365Z,4.40
2018-07-06T08:47:02.618Z,4.20
2018-07-06T08:48:02.875Z,4.80
2018-07-06T08:49:03.123Z,4.80
2018-07-06T08:50:03.376Z,5.10
2018-07-06T08:51:03.626Z,4.80
2018-07-06T08:52:03.878Z,5.20
2018-07-06T08:53:04.130Z,4.70
2018-07-06T08:54:04.378Z,4.60
2018-07-06T08:55:04.629Z,4.20
2018-07-06T08:56:04.882Z,5.10
2018-07-06T08:57:05.134Z,4.80
2018-07-06T08:58:05.390Z,5.10
2018-07-06T08:59:05.642Z,5.50
2018-07-06T09:00:05.893Z,5.10
2018-07-06T09:01:06.147Z,4.50
2018-07-06T09:02:06.398Z,3.80
2018-07-06T09:03:06.650Z,3.90
2018-07-06T09:04:06.967Z,4.20
2018-07-06T09:05:07.157Z,3.60
2018-07-06T09:06:07.410Z,3.40
2018-07-06T09:07:07.660Z,3.60
2018-07-06T09:08:07.913Z,3.30
2018-07-06T09:09:08.167Z,3.30
2018-07-06T09:10:08.420Z,3.50
2018-07-06T09:11:08.672Z,3.50
2018-07-06T09:12:08.925Z,3.50
2018-07-06T09:13:09.178Z,3.90
2018-07-06T09:14:09.468Z,3.50
2018-07-06T09:15:09.683Z,4.10
2018-07-06T09:16:09.997Z,3.60
2018-07-06T09:17:10.197Z,4.00
2018-07-06T09:18:10.441Z,4.00
2018-07-06T09:19:10.694Z,3.60
2018-07-06T09:20:11.093Z,3.50
2018-07-06T09:21:11.201Z,2.60
2018-07-06T09:22:11.456Z,3.30
2018-07-06T09:23:11.709Z,3.10
2018-07-06T09:24:11.992Z,3.40
2018-07-06T09:25:12.217Z,3.60
2018-07-06T09:26:12.854Z,3.80
2018-07-06T09:27:12.728Z,3.70
2018-07-06T09:28:12.982Z,3.40
2018-07-06T09:29:13.412Z,4.00
2018-07-06T09:30:13.522Z,3.50
2018-07-06T09:31:13.745Z,4.00
2018-07-06T09:32:14.000Z,3.90
2018-07-06T09:33:14.255Z,4.30
2018-07-06T09:34:14.508Z,4.00
2018-07-06T09:35:14.762Z,4.30
2018-07-06T09:36:15.019Z,3.80
2018-07-06T09:37:15.272Z,3.90
2018-07-06T09:38:15.525Z,3.40
2018-07-06T09:39:15.779Z,3.60
2018-07-06T09:40:16.033Z,4.10
2018-07-06T09:41:16.288Z,3.50
2018-07-06T09:42:16.546Z,4.00
2018-07-06T09:43:16.847Z,3.30
2018-07-06T09:44:17.050Z,3.30
2018-07-06T09:45:17.303Z,3.50
2018-07-06T09:46:17.558Z,2.90
2018-07-06T09:47:17.812Z,3.50
2018-07-06T09:48:18.067Z,3.80
2018-07-06T09:49:18.319Z,3.70
2018-07-06T09:50:18.574Z,3.90
2018-07-06T09:51:18.830Z,3.90
2018-07-06T09:52:19.083Z,3.70
2018-07-06T09:53:19.336Z,3.90
2018-07-06T09:54:19.590Z,3.50
2018-07-06T09:55:19.844Z,3.30
2018-07-06T09:56:20.103Z,3.50
2018-07-06T09:57:20.353Z,3.30
2018-07-06T09:58:20.609Z,3.30
2018-07-06T09:59:20.864Z,3.10
2018-07-06T10:00:21.120Z,3.90
2018-07-06T10:01:21.375Z,3.80
2018-07-06T10:02:21.632Z,4.10
2018-07-06T10:03:21.889Z,3.40
2018-07-06T10:04:22.191Z,3.50
2018-07-06T10:05:22.403Z,3.10
2018-07-06T10:06:22.655Z,3.60
2018-07-06T10:07:22.908Z,3.70
2018-07-06T10:08:23.164Z,3.40
2018-07-06T10:09:23.421Z,3.80
2018-07-06T10:10:23.698Z,3.60
2018-07-06T10:11:23.935Z,3.70
2018-07-06T10:12:24.192Z,3.50
2018-07-06T10:13:24.448Z,3.20
2018-07-06T10:14:24.707Z,3.00
2018-07-06T10:15:24.960Z,2.70
2018-07-06T10:16:25.214Z,2.70
2018-07-06T10:17:25.471Z,3.30
2018-07-06T10:18:25.727Z,3.60
2018-07-06T10:19:25.999Z,3.50
2018-07-06T10:20:26.239Z,3.20
2018-07-06T10:21:26.495Z,3.30
2018-07-06T10:22:26.751Z,3.00
2018-07-06T10:23:27.005Z,3.00
2018-07-06T10:24:27.262Z,3.10
2018-07-06T10:25:27.516Z,3.00
2018-07-06T10:26:27.781Z,3.10
2018-07-06T10:27:28.091Z,3.50
2018-07-06T10:28:28.286Z,3.10
2018-07-06T10:29:28.540Z,3.40
2018-07-06T10:30:28.797Z,3.20
2018-07-06T10:31:29.053Z,3.40
2018-07-06T10:32:29.310Z,3.00
2018-07-06T10:33:29.577Z,2.90
2018-07-06T10:34:29.822Z,3.20
2018-07-06T10:35:30.082Z,3.30
2018-07-06T10:36:30.334Z,3.10
2018-07-06T10:37:30.591Z,3.10
2018-07-06T10:38:30.847Z,3.10
2018-07-06T10:39:31.185Z,3.40
2018-07-06T10:40:31.357Z,3.70
2018-07-06T10:41:31.613Z,3.60
2018-07-06T10:42:31.868Z,3.30
2018-07-06T10:43:32.124Z,3.50
2018-07-06T10:44:32.380Z,2.90
2018-07-06T10:45:32.638Z,3.10
2018-07-06T10:46:32.901Z,3.20
2018-07-06T10:47:33.148Z,3.40
2018-07-06T10:48:33.410Z,3.10
2018-07-06T10:49:33.665Z,3.60
2018-07-06T10:50:33.920Z,3.30
2018-07-06T10:51:34.177Z,3.30
2018-07-06T10:52:34.434Z,3.10
2018-07-06T10:53:34.688Z,2.80
2018-07-06T10:54:34.944Z,3.20
2018-07-06T10:55:35.204Z,3.20
2018-07-06T10:56:35.458Z,3.10
2018-07-06T10:57:35.712Z,2.50
2018-07-06T10:58:35.966Z,3.10
2018-07-06T10:59:36.221Z,3.10
2018-07-06T11:00:36.477Z,2.80
2018-07-06T11:01:36.734Z,3.00
2018-07-06T11:02:36.991Z,3.10
2018-07-06T11:03:37.245Z,2.80
2018-07-06T11:04:37.500Z,2.70
2018-07-06T11:05:37.756Z,2.40
2018-07-06T11:06:38.013Z,2.50
2018-07-06T11:07:38.271Z,2.90
2018-07-06T11:08:38.526Z,3.10
2018-07-06T11:09:38.783Z,2.90
2018-07-06T11:10:39.037Z,2.40
2018-07-06T11:11:39.311Z,3.00
2018-07-06T11:12:39.548Z,2.70
2018-07-06T11:13:39.804Z,2.70
2018-07-06T11:14:40.059Z,2.70
2018-07-06T11:15:40.312Z,2.70
2018-07-06T11:16:40.568Z,2.80
2018-07-06T11:17:40.827Z,3.10
2018-07-06T11:18:41.080Z,3.00
2018-07-06T11:19:41.335Z,3.00
2018-07-06T11:20:41.589Z,3.20
2018-07-06T11:21:41.845Z,3.50
2018-07-06T11:22:42.100Z,3.10
2018-07-06T11:23:42.355Z,3.10
2018-07-06T11:24:42.610Z,3.20
2018-07-06T11:25:42.862Z,3.10
2018-07-06T11:26:43.119Z,3.60
2018-07-06T11:27:43.378Z,2.80
2018-07-06T11:28:43.629Z,3.10
2018-07-06T11:29:43.883Z,3.40
2018-07-06T11:30:44.139Z,3.50
2018-07-06T11:31:44.394Z,3.20
2018-07-06T11:32:44.651Z,3.60
2018-07-06T11:33:44.904Z,3.50
2018-07-06T11:34:45.165Z,3.50
2018-07-06T11:35:45.415Z,3.20
2018-07-06T11:36:45.672Z,3.30
2018-07-06T11:37:45.928Z,3.30
2018-07-06T11:38:46.181Z,3.60
2018-07-06T11:39:46.436Z,3.30
2018-07-06T11:40:46.692Z,3.20
2018-07-06T11:41:46.944Z,3.00
2018-07-06T11:42:47.202Z,2.90
2018-07-06T11:43:47.454Z,2.70
2018-07-06T11:44:47.752Z,2.60
2018-07-06T11:45:47.965Z,3.10
2018-07-06T11:46:48.220Z,4.00
2018-07-06T11:47:48.475Z,3.50
2018-07-06T11:48:48.731Z,3.20
2018-07-06T11:49:48.984Z,3.20
2018-07-06T11:50:49.240Z,3.50
2018-07-06T11:51:49.498Z,3.10
2018-07-06T11:52:49.751Z,3.40
2018-07-06T11:53:50.007Z,3.20
2018-07-06T11:54:50.260Z,3.50
2018-07-06T11:55:50.517Z,3.90
2018-07-06T11:56:50.773Z,3.60
2018-07-06T11:57:51.027Z,3.90
2018-07-06T11:58:51.284Z,3.80
2018-07-06T11:59:51.537Z,3.40
2018-07-06T12:00:51.793Z,3.20
2018-07-06T12:01:52.097Z,3.50
2018-07-06T12:02:52.302Z,3.80
2018-07-06T12:03:52.582Z,4.00
2018-07-06T12:04:52.812Z,3.70
2018-07-06T12:05:53.069Z,3.80
2018-07-06T12:06:53.322Z,3.40
2018-07-06T12:07:53.576Z,3.00
2018-07-06T12:08:53.831Z,3.10
2018-07-06T12:09:54.083Z,2.80
2018-07-06T12:10:54.338Z,2.70
2018-07-06T12:11:54.593Z,3.10
2018-07-06T12:12:54.847Z,3.10
2018-07-06T12:13:55.103Z,3.00
2018-07-06T12:14:55.357Z,2.60
2018-07-06T12:15:55.613Z,2.70
2018-07-06T12:16:55.867Z,2.40
2018-07-06T12:17:56.119Z,2.80
2018-07-06T12:18:56.376Z,3.00
2018-07-06T12:19:56.629Z,3.10
2018-07-06T12:20:56.904Z,2.50
2018-07-06T12:21:57.143Z,2.90
2018-07-06T12:22:57.397Z,3.40
2018-07-06T12:23:57.652Z,2.50
2018-07-06T12:24:57.905Z,2.40
2018-07-06T12:25:58.161Z,2.90
2018-07-06T12:26:58.415Z,2.60
2018-07-06T12:27:58.672Z,2.50
2018-07-06T12:28:58.929Z,2.70
2018-07-06T12:29:59.185Z,2.80
2018-07-06T12:30:59.437Z,2.50
2018-07-06T12:31:59.692Z,3.00
2018-07-06T12:32:59.946Z,3.20
2018-07-06T12:34:00.201Z,2.80
2018-07-06T12:35:00.457Z,2.50
2018-07-06T12:36:00.711Z,2.80
2018-07-06T12:37:00.991Z,3.30
2018-07-06T12:38:01.221Z,3.30
2018-07-06T12:39:01.474Z,3.50
2018-07-06T12:40:01.729Z,2.50
2018-07-06T12:41:01.984Z,2.30
2018-07-06T12:42:02.237Z,2.60
2018-07-06T12:43:02.496Z,2.90
2018-07-06T12:44:02.749Z,2.80
2018-07-06T12:45:03.003Z,2.70
2018-07-06T12:46:03.258Z,2.70
2018-07-06T12:47:03.513Z,3.00
2018-07-06T12:48:03.767Z,3.00
2018-07-06T12:49:04.023Z,2.70
2018-07-06T12:50:04.279Z,3.30
2018-07-06T12:51:04.531Z,3.20
2018-07-06T12:52:04.786Z,3.00
2018-07-06T12:53:05.038Z,2.90
2018-07-06T12:54:05.294Z,3.10
2018-07-06T12:55:05.546Z,2.80
2018-07-06T12:56:05.802Z,3.10
2018-07-06T12:57:06.057Z,3.00
2018-07-06T12:58:06.315Z,3.00
2018-07-06T12:59:06.566Z,2.90
2018-07-06T13:00:06.824Z,3.10
2018-07-06T13:01:07.076Z,3.30
2018-07-06T13:02:07.334Z,3.30
2018-07-06T13:03:07.589Z,2.90
2018-07-06T13:04:07.843Z,3.20
2018-07-06T13:05:08.100Z,4.10
2018-07-06T13:06:08.354Z,3.30
2018-07-06T13:07:08.611Z,3.20
2018-07-06T13:08:08.865Z,3.20
2018-07-06T13:09:09.120Z,3.10
2018-07-06T13:10:09.374Z,3.00
2018-07-06T13:11:09.629Z,2.80
2018-07-06T13:12:09.884Z,2.50
2018-07-06T13:13:10.139Z,2.80
2018-07-06T13:14:10.394Z,2.70
2018-07-06T13:15:10.647Z,2.40
2018-07-06T13:16:10.900Z,2.40
2018-07-06T13:17:11.157Z,2.30
2018-07-06T13:18:11.408Z,2.40
2018-07-06T13:19:11.663Z,2.30
2018-07-06T13:20:11.917Z,2.50
2018-07-06T13:21:12.174Z,1.80